الصفحة الرئيسية
METAR-TAF:

METAR-TAF

مطار :

مطار البصرة الدولي

البصرة, العراق

دائرة عرض: 30-32-56N, خط طول: 47-39-45E, ارتفاع: 1 متر

مراقبة الطقس الحالي

تاريخ ووقت الإصدار 1ساعة و 0 دقيقة قبل الساعة 04:00UTC
ريح 10 عقدة من الشمال/الشمال الغربي
درجة الحرارة 35°درجة مئوية
الرطوبة 25%
ضغط 1000 hPa
الرؤية 10 كم أو أكثر
الغيوم لا تقل 1500 م ولا وجود لمزنة ركامية السحاب الأسود

METAR: ORMM 190400Z 33010KT CAVOK 35/12 Q1000 NOSIG

زمن: 08:00 (05:00 UTC)

توقعات

تاريخ ووقت الإصدار 7ساعات و 0 دقيقة قبل الساعة 22:00UTC
التوقعات صالحة من19 الساعة 00 UTC إلى 19 الساعة 24 UTC
ريح 5 عقدة من الجنوب الغربي
الرؤية 10 كم أو أكثر
الغيوم لا تقل 1500 م ولا وجود لمزنة ركامية السحاب الأسود
أصبح
من 19 الساعة 05 UTC إلى 19 الساعة 08 UTC
ريح 4 عقدة من الغرب

TAF: ORMM 182200Z 1900/1924 23005KT CAVOK BECMG 1905/1908 14006KT BECNG 1916/1918 28004KT

أرصاد الطقس والتوقعات من أكثر من 4000 مطار (تقارير الطقس للمطار METAR والتنبؤ بالطقس بالمطارTAF).

المحطات المتاحة هي النقط الصفراء والحمراء على الخريطة.

حرك المؤشر فوق النقطة لمعرفة اسم المحطة.

ثم انقر لمعرفة أرصاد وتوقعات الطقس.

لتغيير الخارطة: اضغط على الأزرار الخضراء مع رمز الصليب الأسود للتكبير. على الزر الأخضر مع شرطة للتصغير، أو على الأسهم الخضراء للخرائط المجاورة.


METAR-TAF: